Airfield :
LOGIN :

Register | Disclaimer

   EN    FR    IT 

 










Legend :    VFR   Marginal VFR   IFR   Intensive IFR   Very Intensive IFR
Visi :
Ceiling :
>= 8 km
>= 3000ft
5 to 8 km
1000 to 3000 ft
1500m to 5 km
500 to 1000 ft
800 to 1500m
200 to 500 ft
< 800m
< 200 ft
Symbols :   Thunderstorms  Fog  Heavy snow  Heavy precipitations  Wind > 20 kt
SIGMETs :     Misc.  Thunderstorms  Icing  Turbulence  Mountain Waves  Volcanic Ashes






- Airport Elevation : 935 ft


EBFS - Florennes

EXPIRED METARs :
  • 031525Z AUTO 26010KT 9999 FEW050/// 19/09 Q1020 BLU
  • 032325Z AUTO 26004KT 9999 FEW150/// 13/09 Q1021 BLU
  • 032255Z AUTO 28003KT 9999 NCD 13/09 Q1021 BLU
  • 032225Z AUTO 27003KT 9999 FEW160/// 14/09 Q1021 BLU
  • 032155Z AUTO 29003KT 9999 NCD 14/09 Q1021 BLU
  • 032125Z AUTO 28004KT 9999 NCD 15/09 Q1021 BLU
  • 032055Z AUTO 27003KT 9999 NCD 15/09 Q1021 BLU

TAF TAF EBFS
Valid from the 03 at 19:00 until the 04 at 07:00 UTC


031541Z 0319/0407 30008KT 9999 FEW040
BECMG 0321/0323 SKC
BECMG 0404/0406 24004KT FEW320



MET'MAP, your aeronautical weather chart ! - Copyright ORBIFLY December 2007 - Disclaimer

ORBIFLY MET'MAP TEAM :

Programming & Development : Alexandra Zaïnal
Original concept : Baudouin d'Aumeries
Technical & hardware support : Manuel Goepfert
Assistance : Marc-Olivier Méhu




SOURCES & CREDITS :

   NOAA